sensor_id;sensor_type;location;lat;lon;timestamp;P1;durP1;ratioP1;P2;durP2;ratioP2
21733;SDS011;11029;47.820;10.534;2023-02-28T00:00:32;8.57;;;5.82;;
21733;SDS011;11029;47.820;10.534;2023-02-28T00:02:59;6.82;;;5.18;;
21733;SDS011;11029;47.820;10.534;2023-02-28T00:05:27;8.13;;;5.53;;
21733;SDS011;11029;47.820;10.534;2023-02-28T00:07:54;9.23;;;5.90;;
21733;SDS011;11029;47.820;10.534;2023-02-28T00:10:22;7.28;;;4.97;;
21733;SDS011;11029;47.820;10.534;2023-02-28T00:12:53;9.03;;;5.17;;
21733;SDS011;11029;47.820;10.534;2023-02-28T00:15:23;7.00;;;5.07;;
21733;SDS011;11029;47.820;10.534;2023-02-28T00:17:50;7.30;;;5.18;;
21733;SDS011;11029;47.820;10.534;2023-02-28T00:20:17;8.98;;;5.75;;
21733;SDS011;11029;47.820;10.534;2023-02-28T00:22:45;6.60;;;4.85;;
21733;SDS011;11029;47.820;10.534;2023-02-28T00:25:16;7.60;;;5.38;;
21733;SDS011;11029;47.820;10.534;2023-02-28T00:27:45;8.90;;;5.30;;
21733;SDS011;11029;47.820;10.534;2023-02-28T00:30:13;6.72;;;5.20;;
21733;SDS011;11029;47.820;10.534;2023-02-28T00:32:44;9.30;;;5.55;;
21733;SDS011;11029;47.820;10.534;2023-02-28T00:35:11;9.38;;;5.05;;
21733;SDS011;11029;47.820;10.534;2023-02-28T00:37:40;9.07;;;4.72;;
21733;SDS011;11029;47.820;10.534;2023-02-28T00:40:07;9.35;;;5.38;;
21733;SDS011;11029;47.820;10.534;2023-02-28T00:42:35;6.55;;;5.15;;
21733;SDS011;11029;47.820;10.534;2023-02-28T00:45:03;8.40;;;5.50;;
21733;SDS011;11029;47.820;10.534;2023-02-28T00:47:31;7.22;;;5.35;;
21733;SDS011;11029;47.820;10.534;2023-02-28T00:49:58;8.23;;;5.32;;
21733;SDS011;11029;47.820;10.534;2023-02-28T00:52:25;7.90;;;5.40;;
21733;SDS011;11029;47.820;10.534;2023-02-28T00:54:53;7.20;;;5.30;;
21733;SDS011;11029;47.820;10.534;2023-02-28T00:57:20;8.43;;;5.90;;
21733;SDS011;11029;47.820;10.534;2023-02-28T00:59:47;7.40;;;5.53;;
21733;SDS011;11029;47.820;10.534;2023-02-28T01:02:14;8.25;;;4.85;;
21733;SDS011;11029;47.820;10.534;2023-02-28T01:04:41;8.50;;;5.35;;
21733;SDS011;11029;47.820;10.534;2023-02-28T01:07:08;7.25;;;5.25;;
21733;SDS011;11029;47.820;10.534;2023-02-28T01:09:34;6.95;;;5.18;;
21733;SDS011;11029;47.820;10.534;2023-02-28T01:12:01;7.43;;;5.35;;
21733;SDS011;11029;47.820;10.534;2023-02-28T01:14:28;8.18;;;5.25;;
21733;SDS011;11029;47.820;10.534;2023-02-28T01:16:55;7.00;;;5.18;;
21733;SDS011;11029;47.820;10.534;2023-02-28T01:19:24;9.20;;;5.40;;
21733;SDS011;11029;47.820;10.534;2023-02-28T01:21:50;7.82;;;5.35;;
21733;SDS011;11029;47.820;10.534;2023-02-28T01:24:17;7.47;;;5.32;;
21733;SDS011;11029;47.820;10.534;2023-02-28T01:26:44;8.70;;;5.35;;
21733;SDS011;11029;47.820;10.534;2023-02-28T01:29:11;8.60;;;5.65;;
21733;SDS011;11029;47.820;10.534;2023-02-28T01:31:37;7.15;;;4.93;;
21733;SDS011;11029;47.820;10.534;2023-02-28T01:34:07;8.70;;;5.47;;
21733;SDS011;11029;47.820;10.534;2023-02-28T01:36:33;8.00;;;5.55;;
21733;SDS011;11029;47.820;10.534;2023-02-28T01:39:00;8.45;;;5.18;;
21733;SDS011;11029;47.820;10.534;2023-02-28T01:41:28;11.57;;;5.25;;
21733;SDS011;11029;47.820;10.534;2023-02-28T01:44:06;7.88;;;5.60;;
21733;SDS011;11029;47.820;10.534;2023-02-28T01:46:54;6.43;;;4.90;;
21733;SDS011;11029;47.820;10.534;2023-02-28T01:49:21;9.45;;;5.90;;
21733;SDS011;11029;47.820;10.534;2023-02-28T01:51:49;8.50;;;5.43;;
21733;SDS011;11029;47.820;10.534;2023-02-28T01:54:22;7.13;;;5.18;;
21733;SDS011;11029;47.820;10.534;2023-02-28T01:56:54;8.07;;;5.18;;
21733;SDS011;11029;47.820;10.534;2023-02-28T01:59:35;7.15;;;5.35;;
21733;SDS011;11029;47.820;10.534;2023-02-28T02:02:06;9.43;;;5.25;;
21733;SDS011;11029;47.820;10.534;2023-02-28T02:04:46;6.90;;;5.32;;
21733;SDS011;11029;47.820;10.534;2023-02-28T02:07:18;8.10;;;5.43;;
21733;SDS011;11029;47.820;10.534;2023-02-28T02:09:46;7.43;;;5.10;;
21733;SDS011;11029;47.820;10.534;2023-02-28T02:12:25;7.53;;;5.68;;
21733;SDS011;11029;47.820;10.534;2023-02-28T02:15:16;8.00;;;5.18;;
21733;SDS011;11029;47.820;10.534;2023-02-28T02:17:51;6.55;;;4.72;;
21733;SDS011;11029;47.820;10.534;2023-02-28T02:20:27;7.82;;;5.38;;
21733;SDS011;11029;47.820;10.534;2023-02-28T02:26:31;8.50;;;5.45;;
21733;SDS011;11029;47.820;10.534;2023-02-28T02:32:20;7.40;;;4.88;;
21733;SDS011;11029;47.820;10.534;2023-02-28T02:42:51;8.15;;;5.30;;
21733;SDS011;11029;47.820;10.534;2023-02-28T02:45:35;7.40;;;5.20;;
21733;SDS011;11029;47.820;10.534;2023-02-28T02:48:12;7.32;;;4.93;;
21733;SDS011;11029;47.820;10.534;2023-02-28T02:50:45;8.00;;;5.15;;
21733;SDS011;11029;47.820;10.534;2023-02-28T02:53:18;8.40;;;5.45;;
21733;SDS011;11029;47.820;10.534;2023-02-28T02:55:50;9.75;;;5.25;;
21733;SDS011;11029;47.820;10.534;2023-02-28T02:58:23;11.10;;;5.85;;
21733;SDS011;11029;47.820;10.534;2023-02-28T03:00:57;6.72;;;4.85;;
21733;SDS011;11029;47.820;10.534;2023-02-28T03:03:27;8.77;;;5.40;;
21733;SDS011;11029;47.820;10.534;2023-02-28T03:05:57;6.45;;;5.15;;
21733;SDS011;11029;47.820;10.534;2023-02-28T03:08:25;6.72;;;4.90;;
21733;SDS011;11029;47.820;10.534;2023-02-28T03:10:58;8.15;;;5.50;;
21733;SDS011;11029;47.820;10.534;2023-02-28T03:13:33;8.45;;;5.60;;
21733;SDS011;11029;47.820;10.534;2023-02-28T03:19:44;9.77;;;5.47;;
21733;SDS011;11029;47.820;10.534;2023-02-28T03:22:40;8.38;;;5.85;;
21733;SDS011;11029;47.820;10.534;2023-02-28T03:30:48;7.80;;;5.28;;
21733;SDS011;11029;47.820;10.534;2023-02-28T03:33:21;8.20;;;5.32;;
21733;SDS011;11029;47.820;10.534;2023-02-28T03:35:54;7.78;;;5.07;;
21733;SDS011;11029;47.820;10.534;2023-02-28T03:38:42;8.52;;;5.72;;
21733;SDS011;11029;47.820;10.534;2023-02-28T03:41:19;7.65;;;5.53;;
21733;SDS011;11029;47.820;10.534;2023-02-28T03:43:56;9.43;;;5.97;;
21733;SDS011;11029;47.820;10.534;2023-02-28T03:46:30;9.73;;;5.55;;
21733;SDS011;11029;47.820;10.534;2023-02-28T03:49:02;7.70;;;5.28;;
21733;SDS011;11029;47.820;10.534;2023-02-28T03:51:34;9.50;;;6.10;;
21733;SDS011;11029;47.820;10.534;2023-02-28T03:54:07;9.20;;;5.80;;
21733;SDS011;11029;47.820;10.534;2023-02-28T03:56:47;8.82;;;5.40;;
21733;SDS011;11029;47.820;10.534;2023-02-28T03:59:42;8.55;;;5.32;;
21733;SDS011;11029;47.820;10.534;2023-02-28T04:02:12;9.27;;;5.63;;
21733;SDS011;11029;47.820;10.534;2023-02-28T04:04:38;9.15;;;5.70;;
21733;SDS011;11029;47.820;10.534;2023-02-28T04:07:11;7.68;;;5.80;;
21733;SDS011;11029;47.820;10.534;2023-02-28T04:09:38;9.63;;;5.90;;
21733;SDS011;11029;47.820;10.534;2023-02-28T04:12:05;10.65;;;6.50;;
21733;SDS011;11029;47.820;10.534;2023-02-28T04:14:32;20.85;;;10.77;;
21733;SDS011;11029;47.820;10.534;2023-02-28T04:16:58;13.73;;;8.27;;
21733;SDS011;11029;47.820;10.534;2023-02-28T04:19:25;10.50;;;6.05;;
21733;SDS011;11029;47.820;10.534;2023-02-28T04:21:52;10.95;;;6.60;;
21733;SDS011;11029;47.820;10.534;2023-02-28T04:24:20;7.60;;;5.75;;
21733;SDS011;11029;47.820;10.534;2023-02-28T04:26:50;10.40;;;6.45;;
21733;SDS011;11029;47.820;10.534;2023-02-28T04:29:19;11.05;;;6.25;;
21733;SDS011;11029;47.820;10.534;2023-02-28T04:31:51;9.13;;;5.78;;
21733;SDS011;11029;47.820;10.534;2023-02-28T04:34:26;9.52;;;6.07;;
21733;SDS011;11029;47.820;10.534;2023-02-28T04:36:53;11.18;;;6.60;;
21733;SDS011;11029;47.820;10.534;2023-02-28T04:39:37;11.18;;;6.65;;
21733;SDS011;11029;47.820;10.534;2023-02-28T04:42:05;9.73;;;6.30;;
21733;SDS011;11029;47.820;10.534;2023-02-28T04:44:32;12.32;;;6.50;;
21733;SDS011;11029;47.820;10.534;2023-02-28T04:46:59;8.68;;;6.28;;
21733;SDS011;11029;47.820;10.534;2023-02-28T04:49:26;9.85;;;6.38;;
21733;SDS011;11029;47.820;10.534;2023-02-28T04:51:53;8.95;;;5.95;;
21733;SDS011;11029;47.820;10.534;2023-02-28T04:54:20;10.95;;;6.40;;
21733;SDS011;11029;47.820;10.534;2023-02-28T04:56:46;9.05;;;6.15;;
21733;SDS011;11029;47.820;10.534;2023-02-28T04:59:16;10.57;;;6.45;;
21733;SDS011;11029;47.820;10.534;2023-02-28T05:01:47;11.70;;;6.22;;
21733;SDS011;11029;47.820;10.534;2023-02-28T05:04:16;11.88;;;7.00;;
21733;SDS011;11029;47.820;10.534;2023-02-28T05:06:43;9.82;;;6.15;;
21733;SDS011;11029;47.820;10.534;2023-02-28T05:09:10;11.43;;;6.45;;
21733;SDS011;11029;47.820;10.534;2023-02-28T05:11:41;11.18;;;5.95;;
21733;SDS011;11029;47.820;10.534;2023-02-28T05:14:11;10.48;;;6.30;;
21733;SDS011;11029;47.820;10.534;2023-02-28T05:19:07;11.45;;;6.05;;
21733;SDS011;11029;47.820;10.534;2023-02-28T05:21:35;9.18;;;6.38;;
21733;SDS011;11029;47.820;10.534;2023-02-28T05:24:04;8.65;;;6.15;;
21733;SDS011;11029;47.820;10.534;2023-02-28T05:26:36;12.40;;;6.85;;
21733;SDS011;11029;47.820;10.534;2023-02-28T05:29:04;10.83;;;7.40;;
21733;SDS011;11029;47.820;10.534;2023-02-28T05:31:31;14.63;;;7.38;;
21733;SDS011;11029;47.820;10.534;2023-02-28T05:33:58;14.93;;;7.15;;
21733;SDS011;11029;47.820;10.534;2023-02-28T05:36:25;11.02;;;6.82;;
21733;SDS011;11029;47.820;10.534;2023-02-28T05:38:52;12.18;;;7.22;;
21733;SDS011;11029;47.820;10.534;2023-02-28T05:41:19;12.20;;;7.68;;
21733;SDS011;11029;47.820;10.534;2023-02-28T05:43:46;11.57;;;7.43;;
21733;SDS011;11029;47.820;10.534;2023-02-28T05:46:14;12.48;;;7.20;;
21733;SDS011;11029;47.820;10.534;2023-02-28T05:48:41;11.38;;;6.70;;
21733;SDS011;11029;47.820;10.534;2023-02-28T05:51:09;16.40;;;9.00;;
21733;SDS011;11029;47.820;10.534;2023-02-28T05:53:36;13.23;;;7.53;;
21733;SDS011;11029;47.820;10.534;2023-02-28T05:56:03;11.48;;;7.25;;
21733;SDS011;11029;47.820;10.534;2023-02-28T05:58:30;14.27;;;7.60;;
21733;SDS011;11029;47.820;10.534;2023-02-28T06:01:00;10.90;;;6.95;;
21733;SDS011;11029;47.820;10.534;2023-02-28T06:03:46;11.27;;;7.60;;
21733;SDS011;11029;47.820;10.534;2023-02-28T06:06:13;13.52;;;8.23;;
21733;SDS011;11029;47.820;10.534;2023-02-28T06:08:40;11.50;;;7.72;;
21733;SDS011;11029;47.820;10.534;2023-02-28T06:11:06;13.48;;;8.50;;
21733;SDS011;11029;47.820;10.534;2023-02-28T06:13:33;13.98;;;8.02;;
21733;SDS011;11029;47.820;10.534;2023-02-28T06:16:00;13.40;;;8.18;;
21733;SDS011;11029;47.820;10.534;2023-02-28T06:18:27;12.05;;;7.53;;
21733;SDS011;11029;47.820;10.534;2023-02-28T06:20:54;12.05;;;7.97;;
21733;SDS011;11029;47.820;10.534;2023-02-28T06:23:21;14.30;;;7.38;;
21733;SDS011;11029;47.820;10.534;2023-02-28T06:25:48;15.27;;;8.50;;
21733;SDS011;11029;47.820;10.534;2023-02-28T06:28:15;14.45;;;8.30;;
21733;SDS011;11029;47.820;10.534;2023-02-28T06:30:42;14.35;;;7.88;;
21733;SDS011;11029;47.820;10.534;2023-02-28T06:33:11;13.90;;;7.65;;
21733;SDS011;11029;47.820;10.534;2023-02-28T06:35:38;13.50;;;7.57;;
21733;SDS011;11029;47.820;10.534;2023-02-28T06:38:05;12.38;;;7.80;;
21733;SDS011;11029;47.820;10.534;2023-02-28T06:40:32;13.13;;;7.45;;
21733;SDS011;11029;47.820;10.534;2023-02-28T06:43:01;13.65;;;7.57;;
21733;SDS011;11029;47.820;10.534;2023-02-28T06:45:28;13.00;;;7.80;;
21733;SDS011;11029;47.820;10.534;2023-02-28T06:47:55;14.10;;;8.40;;
21733;SDS011;11029;47.820;10.534;2023-02-28T06:50:21;14.52;;;8.40;;
21733;SDS011;11029;47.820;10.534;2023-02-28T06:52:48;14.25;;;8.07;;
21733;SDS011;11029;47.820;10.534;2023-02-28T06:55:19;9.43;;;5.70;;
21733;SDS011;11029;47.820;10.534;2023-02-28T06:57:46;11.98;;;7.40;;
21733;SDS011;11029;47.820;10.534;2023-02-28T07:00:13;12.88;;;7.97;;
21733;SDS011;11029;47.820;10.534;2023-02-28T07:02:40;14.60;;;8.32;;
21733;SDS011;11029;47.820;10.534;2023-02-28T07:05:07;14.00;;;7.95;;
21733;SDS011;11029;47.820;10.534;2023-02-28T07:07:34;12.57;;;8.00;;
21733;SDS011;11029;47.820;10.534;2023-02-28T07:10:02;15.18;;;8.00;;
21733;SDS011;11029;47.820;10.534;2023-02-28T07:12:29;12.68;;;7.78;;
21733;SDS011;11029;47.820;10.534;2023-02-28T07:14:55;14.75;;;8.18;;
21733;SDS011;11029;47.820;10.534;2023-02-28T07:17:22;11.75;;;7.55;;
21733;SDS011;11029;47.820;10.534;2023-02-28T07:19:49;13.20;;;8.05;;
21733;SDS011;11029;47.820;10.534;2023-02-28T07:22:16;15.27;;;7.70;;
21733;SDS011;11029;47.820;10.534;2023-02-28T07:24:42;11.63;;;8.27;;
21733;SDS011;11029;47.820;10.534;2023-02-28T07:27:09;12.77;;;7.60;;
21733;SDS011;11029;47.820;10.534;2023-02-28T07:29:36;12.13;;;8.00;;
21733;SDS011;11029;47.820;10.534;2023-02-28T07:32:04;13.68;;;8.15;;
21733;SDS011;11029;47.820;10.534;2023-02-28T07:34:31;11.10;;;8.35;;
21733;SDS011;11029;47.820;10.534;2023-02-28T07:36:57;12.95;;;8.00;;
21733;SDS011;11029;47.820;10.534;2023-02-28T07:39:24;14.65;;;9.57;;
21733;SDS011;11029;47.820;10.534;2023-02-28T07:41:51;17.00;;;9.30;;
21733;SDS011;11029;47.820;10.534;2023-02-28T07:44:21;13.38;;;9.60;;
21733;SDS011;11029;47.820;10.534;2023-02-28T07:46:48;13.20;;;8.48;;
21733;SDS011;11029;47.820;10.534;2023-02-28T07:49:15;14.02;;;8.88;;
21733;SDS011;11029;47.820;10.534;2023-02-28T07:51:42;15.07;;;7.68;;
21733;SDS011;11029;47.820;10.534;2023-02-28T07:54:08;12.60;;;7.97;;
21733;SDS011;11029;47.820;10.534;2023-02-28T07:56:35;15.18;;;8.10;;
21733;SDS011;11029;47.820;10.534;2023-02-28T07:59:02;14.35;;;8.20;;
21733;SDS011;11029;47.820;10.534;2023-02-28T08:01:28;13.80;;;8.35;;
21733;SDS011;11029;47.820;10.534;2023-02-28T08:03:56;14.32;;;8.27;;
21733;SDS011;11029;47.820;10.534;2023-02-28T08:06:23;14.68;;;8.40;;
21733;SDS011;11029;47.820;10.534;2023-02-28T08:08:51;12.95;;;7.70;;
21733;SDS011;11029;47.820;10.534;2023-02-28T08:11:18;13.23;;;7.93;;
21733;SDS011;11029;47.820;10.534;2023-02-28T08:13:45;21.80;;;10.18;;
21733;SDS011;11029;47.820;10.534;2023-02-28T08:16:12;16.13;;;9.43;;
21733;SDS011;11029;47.820;10.534;2023-02-28T08:18:43;12.23;;;8.63;;
21733;SDS011;11029;47.820;10.534;2023-02-28T08:21:10;15.70;;;8.63;;
21733;SDS011;11029;47.820;10.534;2023-02-28T08:23:37;12.63;;;7.95;;
21733;SDS011;11029;47.820;10.534;2023-02-28T08:26:05;13.48;;;7.70;;
21733;SDS011;11029;47.820;10.534;2023-02-28T08:28:32;12.20;;;7.60;;
21733;SDS011;11029;47.820;10.534;2023-02-28T08:30:58;13.63;;;8.05;;
21733;SDS011;11029;47.820;10.534;2023-02-28T08:33:27;12.98;;;7.72;;
21733;SDS011;11029;47.820;10.534;2023-02-28T08:35:54;13.75;;;7.82;;
21733;SDS011;11029;47.820;10.534;2023-02-28T08:38:22;13.88;;;8.25;;
21733;SDS011;11029;47.820;10.534;2023-02-28T08:40:49;14.40;;;7.80;;
21733;SDS011;11029;47.820;10.534;2023-02-28T08:43:16;16.00;;;8.50;;
21733;SDS011;11029;47.820;10.534;2023-02-28T08:45:43;13.60;;;8.32;;
21733;SDS011;11029;47.820;10.534;2023-02-28T08:48:09;13.18;;;8.13;;
21733;SDS011;11029;47.820;10.534;2023-02-28T08:50:36;15.15;;;8.52;;
21733;SDS011;11029;47.820;10.534;2023-02-28T08:53:03;13.93;;;8.18;;
21733;SDS011;11029;47.820;10.534;2023-02-28T08:55:30;14.45;;;8.82;;
21733;SDS011;11029;47.820;10.534;2023-02-28T08:57:56;14.32;;;7.97;;
21733;SDS011;11029;47.820;10.534;2023-02-28T09:00:24;13.50;;;8.32;;
21733;SDS011;11029;47.820;10.534;2023-02-28T09:02:51;12.98;;;8.55;;
21733;SDS011;11029;47.820;10.534;2023-02-28T09:05:18;12.98;;;8.15;;
21733;SDS011;11029;47.820;10.534;2023-02-28T09:07:44;13.32;;;7.93;;
21733;SDS011;11029;47.820;10.534;2023-02-28T09:10:11;13.23;;;8.23;;
21733;SDS011;11029;47.820;10.534;2023-02-28T09:12:38;12.98;;;7.57;;
21733;SDS011;11029;47.820;10.534;2023-02-28T09:15:05;14.10;;;8.18;;
21733;SDS011;11029;47.820;10.534;2023-02-28T09:17:32;15.38;;;9.10;;
21733;SDS011;11029;47.820;10.534;2023-02-28T09:19:59;15.82;;;9.05;;
21733;SDS011;11029;47.820;10.534;2023-02-28T09:22:26;12.23;;;7.88;;
21733;SDS011;11029;47.820;10.534;2023-02-28T09:24:52;13.70;;;8.40;;
21733;SDS011;11029;47.820;10.534;2023-02-28T09:27:19;15.32;;;9.02;;
21733;SDS011;11029;47.820;10.534;2023-02-28T09:29:46;15.20;;;9.05;;
21733;SDS011;11029;47.820;10.534;2023-02-28T09:32:12;13.80;;;8.02;;
21733;SDS011;11029;47.820;10.534;2023-02-28T09:34:39;12.68;;;7.88;;
21733;SDS011;11029;47.820;10.534;2023-02-28T09:37:06;12.55;;;8.02;;
21733;SDS011;11029;47.820;10.534;2023-02-28T09:39:33;15.57;;;8.73;;
21733;SDS011;11029;47.820;10.534;2023-02-28T09:41:59;14.30;;;8.43;;
21733;SDS011;11029;47.820;10.534;2023-02-28T09:44:36;14.73;;;8.75;;
21733;SDS011;11029;47.820;10.534;2023-02-28T09:47:18;12.75;;;8.48;;
21733;SDS011;11029;47.820;10.534;2023-02-28T09:50:15;15.15;;;8.15;;
21733;SDS011;11029;47.820;10.534;2023-02-28T09:52:56;15.77;;;9.45;;
21733;SDS011;11029;47.820;10.534;2023-02-28T09:56:25;13.32;;;8.25;;
21733;SDS011;11029;47.820;10.534;2023-02-28T10:01:24;14.55;;;9.18;;
21733;SDS011;11029;47.820;10.534;2023-02-28T10:06:51;13.98;;;8.85;;
21733;SDS011;11029;47.820;10.534;2023-02-28T10:09:26;15.88;;;9.10;;
21733;SDS011;11029;47.820;10.534;2023-02-28T10:12:04;16.75;;;8.57;;
21733;SDS011;11029;47.820;10.534;2023-02-28T10:14:33;15.85;;;10.60;;
21733;SDS011;11029;47.820;10.534;2023-02-28T10:17:02;15.75;;;10.55;;
21733;SDS011;11029;47.820;10.534;2023-02-28T10:23:01;17.98;;;11.52;;
21733;SDS011;11029;47.820;10.534;2023-02-28T10:25:44;15.68;;;10.85;;
21733;SDS011;11029;47.820;10.534;2023-02-28T10:28:18;14.75;;;9.98;;
21733;SDS011;11029;47.820;10.534;2023-02-28T10:30:46;14.88;;;9.10;;
21733;SDS011;11029;47.820;10.534;2023-02-28T10:33:18;16.00;;;9.40;;
21733;SDS011;11029;47.820;10.534;2023-02-28T10:35:48;14.52;;;9.18;;
21733;SDS011;11029;47.820;10.534;2023-02-28T10:38:17;17.55;;;9.65;;
21733;SDS011;11029;47.820;10.534;2023-02-28T10:40:45;17.55;;;9.68;;
21733;SDS011;11029;47.820;10.534;2023-02-28T10:45:39;15.10;;;9.35;;
21733;SDS011;11029;47.820;10.534;2023-02-28T10:53:17;17.23;;;10.52;;
21733;SDS011;11029;47.820;10.534;2023-02-28T10:58:29;14.00;;;9.13;;
21733;SDS011;11029;47.820;10.534;2023-02-28T11:00:58;15.95;;;10.38;;
21733;SDS011;11029;47.820;10.534;2023-02-28T11:03:30;14.80;;;9.05;;
21733;SDS011;11029;47.820;10.534;2023-02-28T11:06:04;15.43;;;10.13;;
21733;SDS011;11029;47.820;10.534;2023-02-28T11:08:35;15.25;;;9.65;;
21733;SDS011;11029;47.820;10.534;2023-02-28T11:11:11;17.70;;;10.10;;
21733;SDS011;11029;47.820;10.534;2023-02-28T11:13:38;15.52;;;9.90;;
21733;SDS011;11029;47.820;10.534;2023-02-28T11:16:05;15.98;;;9.88;;
21733;SDS011;11029;47.820;10.534;2023-02-28T11:18:40;15.02;;;9.85;;
21733;SDS011;11029;47.820;10.534;2023-02-28T11:21:23;18.33;;;10.43;;
21733;SDS011;11029;47.820;10.534;2023-02-28T11:23:52;17.73;;;10.32;;
21733;SDS011;11029;47.820;10.534;2023-02-28T11:26:35;15.15;;;9.80;;
21733;SDS011;11029;47.820;10.534;2023-02-28T11:29:22;16.60;;;10.02;;
21733;SDS011;11029;47.820;10.534;2023-02-28T11:32:01;19.05;;;10.98;;
21733;SDS011;11029;47.820;10.534;2023-02-28T11:34:29;19.00;;;10.82;;
21733;SDS011;11029;47.820;10.534;2023-02-28T11:36:57;17.90;;;10.00;;
21733;SDS011;11029;47.820;10.534;2023-02-28T11:39:25;17.67;;;10.40;;
21733;SDS011;11029;47.820;10.534;2023-02-28T11:42:03;17.08;;;10.60;;
21733;SDS011;11029;47.820;10.534;2023-02-28T11:47:10;23.13;;;13.15;;
21733;SDS011;11029;47.820;10.534;2023-02-28T11:49:47;22.27;;;14.27;;
21733;SDS011;11029;47.820;10.534;2023-02-28T11:52:48;17.77;;;10.38;;
21733;SDS011;11029;47.820;10.534;2023-02-28T12:01:14;14.98;;;9.50;;
21733;SDS011;11029;47.820;10.534;2023-02-28T12:10:03;16.70;;;10.20;;
21733;SDS011;11029;47.820;10.534;2023-02-28T12:13:00;17.67;;;10.82;;
21733;SDS011;11029;47.820;10.534;2023-02-28T12:27:11;18.93;;;10.43;;
21733;SDS011;11029;47.820;10.534;2023-02-28T12:29:49;17.75;;;10.25;;
21733;SDS011;11029;47.820;10.534;2023-02-28T12:32:30;18.25;;;9.25;;
21733;SDS011;11029;47.820;10.534;2023-02-28T12:35:02;16.58;;;9.75;;
21733;SDS011;11029;47.820;10.534;2023-02-28T12:37:32;15.38;;;9.55;;
21733;SDS011;11029;47.820;10.534;2023-02-28T12:40:05;18.13;;;9.82;;
21733;SDS011;11029;47.820;10.534;2023-02-28T12:42:46;15.70;;;9.90;;
21733;SDS011;11029;47.820;10.534;2023-02-28T12:45:27;18.27;;;10.13;;
21733;SDS011;11029;47.820;10.534;2023-02-28T12:48:07;15.75;;;9.60;;
21733;SDS011;11029;47.820;10.534;2023-02-28T12:50:40;15.98;;;9.43;;
21733;SDS011;11029;47.820;10.534;2023-02-28T12:53:15;16.00;;;9.82;;
21733;SDS011;11029;47.820;10.534;2023-02-28T12:55:49;16.23;;;9.93;;
21733;SDS011;11029;47.820;10.534;2023-02-28T12:58:33;16.05;;;9.63;;
21733;SDS011;11029;47.820;10.534;2023-02-28T13:10:24;15.38;;;9.70;;
21733;SDS011;11029;47.820;10.534;2023-02-28T13:13:03;13.68;;;9.32;;
21733;SDS011;11029;47.820;10.534;2023-02-28T13:15:30;16.02;;;10.00;;
21733;SDS011;11029;47.820;10.534;2023-02-28T13:18:01;18.10;;;10.85;;
21733;SDS011;11029;47.820;10.534;2023-02-28T13:20:29;17.00;;;10.52;;
21733;SDS011;11029;47.820;10.534;2023-02-28T13:23:02;19.10;;;10.77;;
21733;SDS011;11029;47.820;10.534;2023-02-28T13:28:08;18.38;;;11.07;;
21733;SDS011;11029;47.820;10.534;2023-02-28T13:38:35;18.65;;;9.68;;
21733;SDS011;11029;47.820;10.534;2023-02-28T13:57:30;16.02;;;9.95;;
21733;SDS011;11029;47.820;10.534;2023-02-28T14:01:06;17.48;;;10.13;;
21733;SDS011;11029;47.820;10.534;2023-02-28T14:06:16;15.18;;;9.40;;
21733;SDS011;11029;47.820;10.534;2023-02-28T14:08:52;16.35;;;9.95;;
21733;SDS011;11029;47.820;10.534;2023-02-28T14:11:25;39.42;;;18.30;;
21733;SDS011;11029;47.820;10.534;2023-02-28T14:14:03;32.25;;;16.85;;
21733;SDS011;11029;47.820;10.534;2023-02-28T14:16:35;24.40;;;14.70;;
21733;SDS011;11029;47.820;10.534;2023-02-28T14:19:13;19.65;;;11.27;;
21733;SDS011;11029;47.820;10.534;2023-02-28T14:41:16;14.60;;;9.77;;
21733;SDS011;11029;47.820;10.534;2023-02-28T14:43:52;15.85;;;9.40;;
21733;SDS011;11029;47.820;10.534;2023-02-28T14:46:20;15.30;;;10.00;;
21733;SDS011;11029;47.820;10.534;2023-02-28T14:48:50;18.00;;;10.23;;
21733;SDS011;11029;47.820;10.534;2023-02-28T14:51:21;17.95;;;10.43;;
21733;SDS011;11029;47.820;10.534;2023-02-28T14:53:56;15.70;;;9.52;;
21733;SDS011;11029;47.820;10.534;2023-02-28T14:56:32;16.02;;;9.52;;
21733;SDS011;11029;47.820;10.534;2023-02-28T14:59:04;15.68;;;9.90;;
21733;SDS011;11029;47.820;10.534;2023-02-28T15:01:32;16.00;;;9.93;;
21733;SDS011;11029;47.820;10.534;2023-02-28T15:04:06;17.55;;;10.10;;
21733;SDS011;11029;47.820;10.534;2023-02-28T15:06:32;15.50;;;9.73;;
21733;SDS011;11029;47.820;10.534;2023-02-28T15:09:06;14.52;;;9.88;;
21733;SDS011;11029;47.820;10.534;2023-02-28T15:11:48;14.98;;;10.30;;
21733;SDS011;11029;47.820;10.534;2023-02-28T15:14:17;17.25;;;10.18;;
21733;SDS011;11029;47.820;10.534;2023-02-28T15:16:48;16.73;;;10.15;;
21733;SDS011;11029;47.820;10.534;2023-02-28T15:19:22;17.20;;;10.85;;
21733;SDS011;11029;47.820;10.534;2023-02-28T15:21:57;18.63;;;10.60;;
21733;SDS011;11029;47.820;10.534;2023-02-28T15:27:06;18.08;;;10.85;;
21733;SDS011;11029;47.820;10.534;2023-02-28T15:29:43;11.90;;;7.28;;
21733;SDS011;11029;47.820;10.534;2023-02-28T15:32:26;16.50;;;9.52;;
21733;SDS011;11029;47.820;10.534;2023-02-28T15:34:54;16.80;;;10.95;;
21733;SDS011;11029;47.820;10.534;2023-02-28T15:37:26;16.17;;;10.20;;
21733;SDS011;11029;47.820;10.534;2023-02-28T15:39:57;15.70;;;10.52;;
21733;SDS011;11029;47.820;10.534;2023-02-28T15:42:31;15.18;;;10.10;;
21733;SDS011;11029;47.820;10.534;2023-02-28T15:44:57;26.55;;;14.48;;
21733;SDS011;11029;47.820;10.534;2023-02-28T15:47:26;19.70;;;11.88;;
21733;SDS011;11029;47.820;10.534;2023-02-28T15:49:59;18.27;;;11.02;;
21733;SDS011;11029;47.820;10.534;2023-02-28T15:52:39;15.98;;;10.32;;
21733;SDS011;11029;47.820;10.534;2023-02-28T15:55:18;17.67;;;10.88;;
21733;SDS011;11029;47.820;10.534;2023-02-28T15:57:50;18.17;;;11.30;;
21733;SDS011;11029;47.820;10.534;2023-02-28T16:00:20;18.70;;;11.27;;
21733;SDS011;11029;47.820;10.534;2023-02-28T16:02:49;20.13;;;12.18;;
21733;SDS011;11029;47.820;10.534;2023-02-28T16:05:24;17.80;;;11.35;;
21733;SDS011;11029;47.820;10.534;2023-02-28T16:08:00;17.58;;;11.02;;
21733;SDS011;11029;47.820;10.534;2023-02-28T16:10:37;17.70;;;11.18;;
21733;SDS011;11029;47.820;10.534;2023-02-28T16:13:03;19.13;;;11.02;;
21733;SDS011;11029;47.820;10.534;2023-02-28T16:15:32;17.38;;;10.60;;
21733;SDS011;11029;47.820;10.534;2023-02-28T16:18:08;21.13;;;11.70;;
21733;SDS011;11029;47.820;10.534;2023-02-28T16:20:37;22.42;;;13.05;;
21733;SDS011;11029;47.820;10.534;2023-02-28T16:23:04;18.88;;;12.13;;
21733;SDS011;11029;47.820;10.534;2023-02-28T16:25:35;17.30;;;11.30;;
21733;SDS011;11029;47.820;10.534;2023-02-28T16:28:06;16.92;;;10.55;;
21733;SDS011;11029;47.820;10.534;2023-02-28T16:30:38;16.17;;;11.10;;
21733;SDS011;11029;47.820;10.534;2023-02-28T16:33:05;19.27;;;11.55;;
21733;SDS011;11029;47.820;10.534;2023-02-28T16:35:33;20.27;;;11.30;;
21733;SDS011;11029;47.820;10.534;2023-02-28T16:38:00;20.00;;;11.07;;
21733;SDS011;11029;47.820;10.534;2023-02-28T16:40:27;19.20;;;11.20;;
21733;SDS011;11029;47.820;10.534;2023-02-28T16:42:59;19.63;;;12.48;;
21733;SDS011;11029;47.820;10.534;2023-02-28T16:45:30;21.03;;;11.97;;
21733;SDS011;11029;47.820;10.534;2023-02-28T16:47:57;17.38;;;10.82;;
21733;SDS011;11029;47.820;10.534;2023-02-28T16:50:25;19.13;;;11.43;;
21733;SDS011;11029;47.820;10.534;2023-02-28T16:52:54;19.92;;;11.55;;
21733;SDS011;11029;47.820;10.534;2023-02-28T16:55:22;19.10;;;11.73;;
21733;SDS011;11029;47.820;10.534;2023-02-28T16:57:51;19.83;;;11.45;;